Time;durP1;ratioP1;P1;durP2;ratioP2;P2;SDS_P1;SDS_P2;PMS_P1;PMS_P2;Temp;Humidity;BMP_temperature;BMP_pressure;BME280_temperature;BME280_humidity;BME280_pressure;Samples;Min_cycle;Max_cycle;Signal;HPM_P1;HPM_P2
2022/01/20 00:00:19;;;;;;;4.18;3.17;;;;;;;;;;5007562;28;20030;-38
2022/01/20 00:02:46;;;;;;;4.70;3.47;;;;;;;;;;5006908;28;20028;-38
2022/01/20 00:26:55;;;;;;;3.42;2.53;;;;;;;;;;4987224;28;20379;-40
2022/01/20 00:29:32;;;;;;;3.85;2.67;;;;;;;;;;4987322;28;20042;-37
2022/01/20 00:32:18;;;;;;;3.60;2.78;;;;;;;;;;4987414;28;20028;-39
2022/01/20 00:37:20;;;;;;;4.25;2.63;;;;;;;;;;4987328;28;20044;-40
2022/01/20 00:39:46;;;;;;;4.43;2.80;;;;;;;;;;4987304;28;20030;-39
2022/01/20 00:42:11;;;;;;;3.30;2.70;;;;;;;;;;4986833;28;20034;-39
2022/01/20 00:44:37;;;;;;;3.80;2.50;;;;;;;;;;4988477;28;20523;-40
2022/01/20 00:47:03;;;;;;;3.33;2.42;;;;;;;;;;5005994;28;20025;-37
2022/01/20 00:49:28;;;;;;;3.35;2.42;;;;;;;;;;5006057;28;20030;-36
2022/01/20 00:51:54;;;;;;;4.10;2.83;;;;;;;;;;5006202;28;20026;-35
2022/01/20 00:54:20;;;;;;;3.55;2.60;;;;;;;;;;5006447;28;20096;-39
2022/01/20 00:56:45;;;;;;;4.43;3.05;;;;;;;;;;5006596;28;20472;-40
2022/01/20 00:59:11;;;;;;;3.50;2.63;;;;;;;;;;5006340;28;20416;-34
2022/01/20 01:01:36;;;;;;;3.53;2.50;;;;;;;;;;5005756;28;20088;-39
2022/01/20 01:04:02;;;;;;;3.85;2.47;;;;;;;;;;5005799;28;20037;-40
2022/01/20 01:08:56;;;;;;;2.45;2.25;;;;;;;;;;5005600;28;20037;-36
2022/01/20 01:11:23;;;;;;;2.63;2.30;;;;;;;;;;5005563;28;20025;-38
2022/01/20 01:13:50;;;;;;;3.97;2.25;;;;;;;;;;5005527;28;20523;-39
2022/01/20 01:16:18;;;;;;;3.20;2.50;;;;;;;;;;5005409;28;20645;-37
2022/01/20 01:21:43;;;;;;;3.05;2.40;;;;;;;;;;5005718;28;20029;-35
2022/01/20 01:24:09;;;;;;;3.15;2.58;;;;;;;;;;5006157;28;20041;-37
2022/01/20 01:26:35;;;;;;;3.15;2.30;;;;;;;;;;5005573;28;20395;-36
2022/01/20 01:29:04;;;;;;;5.15;2.33;;;;;;;;;;5005948;28;20026;-37
2022/01/20 01:31:36;;;;;;;3.70;2.40;;;;;;;;;;5005843;28;20073;-36
2022/01/20 01:34:09;;;;;;;4.28;2.40;;;;;;;;;;5003798;28;20111;-35
2022/01/20 01:39:18;;;;;;;;;;;;;;;;;;5006082;28;19967;-39
2022/01/20 01:41:45;;;;;;;3.17;2.30;;;;;;;;;;5005219;28;20380;-42
2022/01/20 01:44:12;;;;;;;3.05;2.20;;;;;;;;;;5005183;28;20492;-40
2022/01/20 01:46:37;;;;;;;2.65;2.25;;;;;;;;;;5004831;28;20025;-40
2022/01/20 01:49:04;;;;;;;3.40;2.33;;;;;;;;;;5004127;28;20463;-40
2022/01/20 01:51:29;;;;;;;3.85;2.40;;;;;;;;;;5002036;28;20033;-41
2022/01/20 01:53:55;;;;;;;2.42;2.13;;;;;;;;;;4985888;28;20418;-37
2022/01/20 01:56:20;;;;;;;2.80;2.40;;;;;;;;;;4985390;28;20420;-38
2022/01/20 01:58:46;;;;;;;3.33;2.60;;;;;;;;;;4985634;28;20034;-39
2022/01/20 02:01:11;;;;;;;3.35;2.50;;;;;;;;;;4985504;28;20081;-41
2022/01/20 02:03:45;;;;;;;3.58;2.47;;;;;;;;;;4985374;28;20518;-39
2022/01/20 02:08:50;;;;;;;2.85;2.45;;;;;;;;;;4985931;28;20112;-38
2022/01/20 02:19:28;;;;;;;3.70;2.80;;;;;;;;;;4985417;28;20124;-41
2022/01/20 02:21:56;;;;;;;3.05;2.70;;;;;;;;;;4984685;28;20027;-37
2022/01/20 02:24:22;;;;;;;3.50;2.70;;;;;;;;;;4984789;28;20038;-37
2022/01/20 02:26:47;;;;;;;4.30;2.63;;;;;;;;;;4985531;28;20031;-41
2022/01/20 02:29:13;;;;;;;3.55;2.88;;;;;;;;;;4999970;28;20030;-37
2022/01/20 02:31:39;;;;;;;4.72;2.63;;;;;;;;;;4984640;28;20065;-40
2022/01/20 02:34:07;;;;;;;3.83;2.50;;;;;;;;;;4983555;28;20128;-41
2022/01/20 02:36:35;;;;;;;4.10;2.70;;;;;;;;;;4985171;28;20023;-40
2022/01/20 02:39:09;;;;;;;2.88;2.47;;;;;;;;;;4985084;28;20539;-37
2022/01/20 02:47:10;;;;;;;3.85;3.00;;;;;;;;;;4985353;28;20037;-41
2022/01/20 02:49:35;;;;;;;5.13;2.95;;;;;;;;;;4985126;28;20113;-38
2022/01/20 02:52:01;;;;;;;3.15;2.38;;;;;;;;;;4984983;28;20113;-38
2022/01/20 02:54:27;;;;;;;4.18;2.90;;;;;;;;;;4984864;28;20023;-38
2022/01/20 02:56:52;;;;;;;3.70;2.40;;;;;;;;;;4984578;28;20030;-39
2022/01/20 02:59:18;;;;;;;2.88;2.22;;;;;;;;;;4988073;28;20026;-41
2022/01/20 03:01:43;;;;;;;4.10;2.45;;;;;;;;;;4987959;28;20046;-41
2022/01/20 03:04:10;;;;;;;3.42;2.67;;;;;;;;;;4988590;28;20022;-41
2022/01/20 03:06:35;;;;;;;3.40;2.35;;;;;;;;;;4988866;28;20026;-41
2022/01/20 03:09:01;;;;;;;3.97;2.33;;;;;;;;;;5002656;28;20034;-41
2022/01/20 03:11:26;;;;;;;3.63;2.45;;;;;;;;;;5007883;28;20127;-40
2022/01/20 03:13:52;;;;;;;3.92;2.45;;;;;;;;;;5007957;28;20033;-39
2022/01/20 03:16:18;;;;;;;3.75;2.40;;;;;;;;;;5007324;28;20030;-35
2022/01/20 03:18:43;;;;;;;4.95;2.45;;;;;;;;;;5008063;28;20123;-40
2022/01/20 03:21:08;;;;;;;3.13;2.22;;;;;;;;;;5008434;28;20034;-39
2022/01/20 03:23:34;;;;;;;4.00;2.58;;;;;;;;;;5008023;28;20558;-38
2022/01/20 03:26:00;;;;;;;3.17;2.55;;;;;;;;;;5007641;28;20349;-40
2022/01/20 03:28:25;;;;;;;4.43;2.50;;;;;;;;;;5006831;28;20025;-39
2022/01/20 03:30:51;;;;;;;3.15;2.30;;;;;;;;;;5008150;28;20030;-39
2022/01/20 03:33:16;;;;;;;4.18;2.42;;;;;;;;;;5007294;28;20121;-39
2022/01/20 03:35:42;;;;;;;3.40;2.50;;;;;;;;;;5007414;28;20053;-39
2022/01/20 03:38:08;;;;;;;3.33;2.42;;;;;;;;;;5007897;28;20034;-40
2022/01/20 03:40:33;;;;;;;3.28;2.40;;;;;;;;;;5007724;28;20127;-41
2022/01/20 03:42:59;;;;;;;3.58;2.45;;;;;;;;;;5007866;28;20032;-39
2022/01/20 03:45:27;;;;;;;4.63;2.28;;;;;;;;;;5007675;28;20627;-37
2022/01/20 03:47:55;;;;;;;3.85;2.63;;;;;;;;;;5008026;28;20022;-40
2022/01/20 03:53:06;;;;;;;3.40;2.65;;;;;;;;;;5007341;28;20049;-40
2022/01/20 03:55:31;;;;;;;4.93;2.90;;;;;;;;;;5006997;28;20497;-40
2022/01/20 03:57:57;;;;;;;3.65;2.53;;;;;;;;;;5006987;28;20030;-39
2022/01/20 04:00:22;;;;;;;6.05;2.47;;;;;;;;;;5006909;28;20014;-37
2022/01/20 04:02:48;;;;;;;3.55;2.50;;;;;;;;;;5006918;28;20511;-39
2022/01/20 04:05:13;;;;;;;3.58;2.40;;;;;;;;;;5006841;28;20519;-38
2022/01/20 04:07:39;;;;;;;3.47;2.70;;;;;;;;;;5003791;28;20353;-38
2022/01/20 04:10:05;;;;;;;3.80;2.65;;;;;;;;;;4986432;28;20037;-38
2022/01/20 04:12:30;;;;;;;5.82;2.40;;;;;;;;;;5006575;28;20041;-39
2022/01/20 04:14:56;;;;;;;4.03;2.60;;;;;;;;;;5007257;28;20044;-37
2022/01/20 04:17:21;;;;;;;3.72;2.60;;;;;;;;;;5007093;28;20415;-39
2022/01/20 04:19:47;;;;;;;4.22;2.80;;;;;;;;;;5007513;28;20037;-37
2022/01/20 04:22:13;;;;;;;3.83;2.83;;;;;;;;;;5007084;28;20026;-39
2022/01/20 04:24:38;;;;;;;4.57;3.08;;;;;;;;;;5006377;28;20096;-39
2022/01/20 04:27:04;;;;;;;4.05;2.67;;;;;;;;;;5006672;28;20036;-36
2022/01/20 04:29:30;;;;;;;4.88;2.60;;;;;;;;;;5006552;28;20113;-38
2022/01/20 04:31:55;;;;;;;3.67;2.88;;;;;;;;;;5006606;28;20044;-39
2022/01/20 04:34:21;;;;;;;3.80;2.90;;;;;;;;;;5006421;28;20042;-40
2022/01/20 04:36:49;;;;;;;4.03;2.58;;;;;;;;;;5006511;28;20492;-39
2022/01/20 04:39:19;;;;;;;5.68;2.50;;;;;;;;;;5006795;28;20488;-39
2022/01/20 04:41:44;;;;;;;3.22;2.55;;;;;;;;;;5007008;28;20034;-40
2022/01/20 04:44:17;;;;;;;4.07;2.78;;;;;;;;;;5006480;28;20393;-36
2022/01/20 04:47:04;;;;;;;3.25;2.65;;;;;;;;;;5006378;28;20088;-39
2022/01/20 04:57:27;;;;;;;4.22;2.88;;;;;;;;;;5006101;28;20751;-38
2022/01/20 04:59:54;;;;;;;4.65;2.78;;;;;;;;;;5006150;28;20022;-39
2022/01/20 05:02:20;;;;;;;4.22;2.75;;;;;;;;;;5005828;28;20072;-36
2022/01/20 05:04:46;;;;;;;4.15;3.00;;;;;;;;;;5005776;28;20073;-38
2022/01/20 05:07:19;;;;;;;4.25;2.88;;;;;;;;;;5000882;28;20405;-40
2022/01/20 05:09:45;;;;;;;4.00;2.85;;;;;;;;;;5000288;28;20029;-38
2022/01/20 05:12:14;;;;;;;5.53;3.15;;;;;;;;;;5002996;28;20030;-39
2022/01/20 05:14:39;;;;;;;6.40;3.40;;;;;;;;;;5003290;28;20452;-35
2022/01/20 05:17:05;;;;;;;5.15;2.90;;;;;;;;;;5020561;28;20044;-39
2022/01/20 05:19:31;;;;;;;3.95;2.65;;;;;;;;;;5009195;28;20377;-38
2022/01/20 05:21:57;;;;;;;5.10;3.15;;;;;;;;;;5002034;28;20053;-37
2022/01/20 05:24:23;;;;;;;6.35;2.95;;;;;;;;;;5000485;28;20026;-37
2022/01/20 05:26:58;;;;;;;6.53;2.88;;;;;;;;;;4990225;28;20514;-39
2022/01/20 05:29:23;;;;;;;6.63;2.88;;;;;;;;;;4989313;28;20574;-32
2022/01/20 05:31:49;;;;;;;9.02;2.95;;;;;;;;;;4996330;28;20037;-35
2022/01/20 05:34:15;;;;;;;5.85;2.95;;;;;;;;;;4996270;28;20046;-36
2022/01/20 05:36:41;;;;;;;5.85;2.95;;;;;;;;;;5002683;28;20030;-37
2022/01/20 05:39:07;;;;;;;5.25;2.95;;;;;;;;;;5003598;28;20049;-40
2022/01/20 05:41:32;;;;;;;9.50;3.40;;;;;;;;;;5003954;28;20045;-35
2022/01/20 05:43:58;;;;;;;14.77;3.83;;;;;;;;;;5002350;28;20037;-39
2022/01/20 05:46:26;;;;;;;14.25;3.90;;;;;;;;;;4998008;28;20026;-37
2022/01/20 05:48:56;;;;;;;20.98;4.28;;;;;;;;;;5001374;28;20602;-39
2022/01/20 05:51:22;;;;;;;8.52;3.03;;;;;;;;;;4983584;28;20034;-33
2022/01/20 05:53:47;;;;;;;7.75;2.88;;;;;;;;;;4983441;28;20034;-39
2022/01/20 05:56:13;;;;;;;13.95;3.03;;;;;;;;;;4990004;28;20088;-36
2022/01/20 05:58:38;;;;;;;5.68;3.15;;;;;;;;;;4997832;28;20526;-38
2022/01/20 06:01:07;;;;;;;9.18;3.05;;;;;;;;;;5000930;28;20560;-39
2022/01/20 06:03:36;;;;;;;11.48;3.42;;;;;;;;;;4999624;28;20034;-39
2022/01/20 06:06:02;;;;;;;12.40;3.67;;;;;;;;;;4983274;28;20488;-38
2022/01/20 06:08:27;;;;;;;11.35;3.40;;;;;;;;;;4995474;28;20519;-40
2022/01/20 06:10:53;;;;;;;8.80;3.33;;;;;;;;;;5003397;28;20030;-39
2022/01/20 06:13:18;;;;;;;7.65;3.00;;;;;;;;;;5003205;28;20423;-39
2022/01/20 06:15:44;;;;;;;9.70;2.85;;;;;;;;;;5003061;28;20095;-37
2022/01/20 06:18:10;;;;;;;9.00;3.22;;;;;;;;;;5003268;28;20500;-39
2022/01/20 06:20:36;;;;;;;10.57;3.03;;;;;;;;;;5001257;28;20625;-37
2022/01/20 06:23:01;;;;;;;9.63;3.15;;;;;;;;;;5001966;28;20480;-37
2022/01/20 06:25:27;;;;;;;6.07;3.00;;;;;;;;;;5002669;28;20033;-37
2022/01/20 06:27:52;;;;;;;5.70;2.83;;;;;;;;;;5003506;28;20373;-37
2022/01/20 06:30:18;;;;;;;9.93;4.60;;;;;;;;;;5002790;28;20413;-39
2022/01/20 06:32:44;;;;;;;17.40;6.60;;;;;;;;;;5004212;28;20030;-38
2022/01/20 06:35:09;;;;;;;15.88;5.20;;;;;;;;;;5003783;28;20116;-41
2022/01/20 06:37:35;;;;;;;18.30;5.03;;;;;;;;;;5003067;28;20038;-37
2022/01/20 06:40:00;;;;;;;9.30;4.47;;;;;;;;;;5005603;28;20538;-37
2022/01/20 06:42:26;;;;;;;10.80;4.57;;;;;;;;;;5006819;28;20033;-37
2022/01/20 06:44:51;;;;;;;9.50;4.22;;;;;;;;;;5006778;28;20408;-36
2022/01/20 06:47:19;;;;;;;14.43;4.78;;;;;;;;;;5006292;28;20128;-38
2022/01/20 06:49:45;;;;;;;13.65;5.15;;;;;;;;;;4999615;28;20026;-38
2022/01/20 06:52:10;;;;;;;12.95;4.55;;;;;;;;;;4996809;28;20026;-35
2022/01/20 06:54:36;;;;;;;11.43;4.88;;;;;;;;;;4988168;28;20595;-39
2022/01/20 06:57:02;;;;;;;10.65;5.05;;;;;;;;;;4988645;28;20034;-37
2022/01/20 06:59:27;;;;;;;16.50;4.45;;;;;;;;;;4988150;28;20448;-38
2022/01/20 07:01:53;;;;;;;11.27;3.75;;;;;;;;;;4989005;28;20049;-37
2022/01/20 07:04:18;;;;;;;13.60;4.50;;;;;;;;;;4988475;28;20026;-33
2022/01/20 07:06:44;;;;;;;21.38;4.57;;;;;;;;;;4987903;28;20064;-36
2022/01/20 07:09:10;;;;;;;11.90;4.28;;;;;;;;;;4988603;28;20031;-38
2022/01/20 07:11:38;;;;;;;12.88;4.13;;;;;;;;;;4988244;28;20058;-38
2022/01/20 07:14:03;;;;;;;14.82;4.30;;;;;;;;;;4987632;28;20049;-40
2022/01/20 07:16:29;;;;;;;9.52;4.88;;;;;;;;;;4987369;28;20034;-37
2022/01/20 07:18:55;;;;;;;7.88;4.65;;;;;;;;;;4987660;28;20026;-36
2022/01/20 07:21:20;;;;;;;14.55;4.18;;;;;;;;;;4987048;28;20076;-37
2022/01/20 07:23:46;;;;;;;11.98;4.15;;;;;;;;;;4987686;28;20062;-34
2022/01/20 07:26:12;;;;;;;12.90;4.43;;;;;;;;;;4988098;28;20105;-38
2022/01/20 07:28:37;;;;;;;10.60;4.93;;;;;;;;;;4988216;28;20107;-39
2022/01/20 07:31:03;;;;;;;9.18;4.60;;;;;;;;;;4988870;28;20026;-40
2022/01/20 07:33:28;;;;;;;9.60;3.95;;;;;;;;;;4988327;28;20081;-39
2022/01/20 07:35:54;;;;;;;6.82;3.88;;;;;;;;;;4988699;28;20043;-40
2022/01/20 07:38:20;;;;;;;8.00;3.88;;;;;;;;;;4988440;28;20077;-35
2022/01/20 07:40:45;;;;;;;10.05;4.30;;;;;;;;;;4988299;28;20050;-40
2022/01/20 07:43:11;;;;;;;8.70;4.68;;;;;;;;;;4988363;28;20404;-37
2022/01/20 07:45:37;;;;;;;6.95;4.13;;;;;;;;;;4988241;28;20081;-38
2022/01/20 07:48:02;;;;;;;9.95;3.95;;;;;;;;;;4988535;28;20058;-35
2022/01/20 07:50:28;;;;;;;7.35;4.07;;;;;;;;;;4988081;28;20504;-37
2022/01/20 07:52:53;;;;;;;8.43;4.28;;;;;;;;;;4988451;28;20061;-35
2022/01/20 07:55:19;;;;;;;10.32;4.07;;;;;;;;;;4988390;28;20033;-40
2022/01/20 07:57:44;;;;;;;9.90;4.13;;;;;;;;;;4988049;28;20408;-39
2022/01/20 08:00:10;;;;;;;8.48;3.67;;;;;;;;;;4988374;28;20030;-37
2022/01/20 08:02:36;;;;;;;10.05;4.13;;;;;;;;;;4987909;28;20105;-35
2022/01/20 08:05:01;;;;;;;6.05;3.80;;;;;;;;;;4987479;28;20037;-38
2022/01/20 08:07:27;;;;;;;8.90;4.50;;;;;;;;;;4986634;28;20045;-37
2022/01/20 08:09:58;;;;;;;7.45;3.75;;;;;;;;;;4987608;28;20068;-38
2022/01/20 08:12:27;;;;;;;7.03;3.83;;;;;;;;;;4987597;28;20590;-40
2022/01/20 08:14:53;;;;;;;8.07;3.97;;;;;;;;;;4987180;28;20038;-39
2022/01/20 08:17:18;;;;;;;9.15;4.05;;;;;;;;;;4987609;28;20030;-38
2022/01/20 08:19:44;;;;;;;6.60;4.03;;;;;;;;;;4987475;28;20413;-39
2022/01/20 08:22:10;;;;;;;6.82;4.60;;;;;;;;;;4987990;28;20030;-36
2022/01/20 08:24:35;;;;;;;12.90;3.97;;;;;;;;;;4987029;28;20030;-39
2022/01/20 08:27:01;;;;;;;7.38;3.92;;;;;;;;;;4987588;28;20033;-38
2022/01/20 08:29:26;;;;;;;7.00;3.92;;;;;;;;;;4987372;28;20022;-40
2022/01/20 08:31:52;;;;;;;5.88;4.03;;;;;;;;;;4987584;28;20022;-40
2022/01/20 08:34:17;;;;;;;6.40;3.80;;;;;;;;;;4987447;28;20053;-37
2022/01/20 08:36:44;;;;;;;5.68;3.70;;;;;;;;;;4987501;28;20022;-40
2022/01/20 08:41:57;;;;;;;7.20;3.90;;;;;;;;;;4987253;28;20101;-38
2022/01/20 08:44:23;;;;;;;6.50;3.65;;;;;;;;;;4987431;28;20557;-37
2022/01/20 08:46:48;;;;;;;6.70;3.67;;;;;;;;;;4987547;28;20031;-38
2022/01/20 08:49:14;;;;;;;6.95;4.13;;;;;;;;;;4987191;28;20054;-36
2022/01/20 08:51:40;;;;;;;6.65;3.58;;;;;;;;;;4987156;28;20030;-37
2022/01/20 08:54:05;;;;;;;5.78;3.60;;;;;;;;;;4987142;28;20037;-40
2022/01/20 08:56:34;;;;;;;6.15;3.55;;;;;;;;;;4985735;28;20038;-38
2022/01/20 08:59:03;;;;;;;5.50;3.72;;;;;;;;;;4986724;28;20034;-37
2022/01/20 09:01:29;;;;;;;6.70;3.72;;;;;;;;;;4998665;28;20072;-40
2022/01/20 09:03:54;;;;;;;6.32;3.65;;;;;;;;;;5006807;28;20022;-38
2022/01/20 09:06:20;;;;;;;5.85;3.72;;;;;;;;;;5005407;28;20753;-39
2022/01/20 09:08:47;;;;;;;6.97;4.13;;;;;;;;;;5004414;28;20117;-37
2022/01/20 09:11:22;;;;;;;6.13;3.25;;;;;;;;;;5006632;28;20025;-38
2022/01/20 09:16:36;;;;;;;5.60;3.47;;;;;;;;;;5006378;28;20088;-38
2022/01/20 09:19:02;;;;;;;6.07;3.50;;;;;;;;;;5006358;28;20030;-37
2022/01/20 09:21:28;;;;;;;6.80;3.85;;;;;;;;;;5005743;28;20029;-39
2022/01/20 09:23:54;;;;;;;6.95;3.30;;;;;;;;;;5004883;28;20034;-40
2022/01/20 09:26:19;;;;;;;5.63;4.20;;;;;;;;;;5006336;28;20228;-41
2022/01/20 09:28:45;;;;;;;4.43;3.28;;;;;;;;;;5005866;28;20030;-40
2022/01/20 09:31:11;;;;;;;4.80;3.60;;;;;;;;;;5006127;28;20033;-39
2022/01/20 09:33:36;;;;;;;5.55;3.40;;;;;;;;;;5005773;28;20053;-36
2022/01/20 09:36:02;;;;;;;6.35;3.65;;;;;;;;;;5005334;28;20034;-38
2022/01/20 09:38:28;;;;;;;6.47;4.00;;;;;;;;;;5006165;28;20038;-37
2022/01/20 09:40:53;;;;;;;4.68;3.78;;;;;;;;;;5006119;28;20436;-40
2022/01/20 09:43:19;;;;;;;5.35;3.75;;;;;;;;;;5006122;28;20026;-39
2022/01/20 09:45:54;;;;;;;7.75;4.05;;;;;;;;;;5006022;28;20025;-39
2022/01/20 09:48:20;;;;;;;5.70;3.90;;;;;;;;;;5005028;28;20417;-40
2022/01/20 09:50:46;;;;;;;5.57;3.58;;;;;;;;;;5005507;28;20033;-38
2022/01/20 09:53:12;;;;;;;4.97;3.55;;;;;;;;;;5005795;28;20514;-37
2022/01/20 09:55:38;;;;;;;6.53;4.05;;;;;;;;;;5005534;28;20117;-40
2022/01/20 09:58:04;;;;;;;6.00;4.15;;;;;;;;;;5005683;28;20056;-37
2022/01/20 10:00:30;;;;;;;6.47;3.78;;;;;;;;;;5005243;28;20034;-39
2022/01/20 10:03:01;;;;;;;7.53;4.47;;;;;;;;;;4993705;28;20033;-38
2022/01/20 10:05:34;;;;;;;7.22;3.92;;;;;;;;;;4985686;28;20540;-39
2022/01/20 10:08:04;;;;;;;5.40;3.70;;;;;;;;;;4985393;28;20034;-40
2022/01/20 10:10:57;;;;;;;6.30;4.13;;;;;;;;;;4985980;28;20026;-41
2022/01/20 10:13:24;;;;;;;6.38;3.95;;;;;;;;;;4991920;28;20053;-40
2022/01/20 10:16:10;;;;;;;5.22;3.70;;;;;;;;;;4985676;28;20114;-38
2022/01/20 10:18:45;;;;;;;6.72;4.50;;;;;;;;;;4985199;28;20493;-39
2022/01/20 10:21:11;;;;;;;6.55;3.90;;;;;;;;;;4985696;28;20042;-39
2022/01/20 10:23:47;;;;;;;6.30;4.20;;;;;;;;;;4985562;28;20109;-40
2022/01/20 10:26:21;;;;;;;5.78;3.70;;;;;;;;;;5004484;28;20030;-38
2022/01/20 10:28:52;;;;;;;7.47;4.03;;;;;;;;;;5005143;28;20050;-37
2022/01/20 10:31:29;;;;;;;9.02;4.20;;;;;;;;;;5005052;28;20034;-40
2022/01/20 10:33:54;;;;;;;6.32;4.00;;;;;;;;;;5003835;28;20042;-38
2022/01/20 10:36:21;;;;;;;6.65;4.50;;;;;;;;;;5004893;28;20026;-38
2022/01/20 10:38:51;;;;;;;9.48;4.60;;;;;;;;;;5004956;28;20026;-38
2022/01/20 10:41:36;;;;;;;5.40;3.70;;;;;;;;;;5005402;28;20037;-33
2022/01/20 10:44:07;;;;;;;5.07;3.55;;;;;;;;;;5005417;28;20029;-44
2022/01/20 10:46:52;;;;;;;7.70;4.20;;;;;;;;;;5004883;28;20026;-38
2022/01/20 10:49:18;;;;;;;6.35;4.03;;;;;;;;;;5003780;28;20038;-39
2022/01/20 10:51:55;;;;;;;7.00;3.88;;;;;;;;;;5004903;28;20026;-37
2022/01/20 10:54:21;;;;;;;6.50;3.97;;;;;;;;;;5004983;28;20022;-39
2022/01/20 10:56:54;;;;;;;4.93;3.78;;;;;;;;;;5004561;28;20018;-39
2022/01/20 10:59:21;;;;;;;5.47;4.10;;;;;;;;;;5004900;28;20042;-37
2022/01/20 11:02:04;;;;;;;5.97;4.18;;;;;;;;;;5005002;28;20117;-34
2022/01/20 11:04:30;;;;;;;6.85;4.05;;;;;;;;;;4991615;28;20058;-38
2022/01/20 11:06:58;;;;;;;7.05;4.13;;;;;;;;;;4997171;28;20557;-40
2022/01/20 11:09:25;;;;;;;5.78;4.35;;;;;;;;;;4985432;28;20113;-38
2022/01/20 11:11:51;;;;;;;7.45;4.38;;;;;;;;;;4985237;28;20385;-38
2022/01/20 11:14:17;;;;;;;7.80;4.35;;;;;;;;;;4989754;28;20050;-33
2022/01/20 11:16:43;;;;;;;9.73;5.10;;;;;;;;;;4984738;28;20034;-38
2022/01/20 11:19:18;;;;;;;10.73;6.95;;;;;;;;;;4986897;28;20476;-37
2022/01/20 11:21:45;;;;;;;11.18;7.43;;;;;;;;;;4997934;28;20033;-36
2022/01/20 11:24:24;;;;;;;17.92;8.52;;;;;;;;;;4996644;28;20054;-34
2022/01/20 11:26:49;;;;;;;24.52;10.30;;;;;;;;;;4997718;28;20018;-40
2022/01/20 11:29:16;;;;;;;44.38;14.50;;;;;;;;;;4996616;28;20497;-38
2022/01/20 11:31:41;;;;;;;46.15;17.25;;;;;;;;;;4996363;28;20108;-38
2022/01/20 11:34:17;;;;;;;44.38;16.88;;;;;;;;;;4999342;28;20049;-36
2022/01/20 11:36:43;;;;;;;37.95;17.67;;;;;;;;;;4992349;28;20050;-36
2022/01/20 11:39:08;;;;;;;47.38;18.00;;;;;;;;;;4999612;28;20497;-36
2022/01/20 11:41:43;;;;;;;38.88;18.63;;;;;;;;;;5000406;28;20088;-40
2022/01/20 11:44:14;;;;;;;36.88;18.05;;;;;;;;;;5007640;28;20069;-38
2022/01/20 11:46:43;;;;;;;41.90;17.60;;;;;;;;;;5007543;28;20022;-41
2022/01/20 11:49:10;;;;;;;45.47;19.35;;;;;;;;;;5006550;28;20052;-38
2022/01/20 11:51:42;;;;;;;43.33;19.35;;;;;;;;;;5004039;28;20038;-41
2022/01/20 11:54:08;;;;;;;35.70;18.58;;;;;;;;;;4987630;28;20548;-37
2022/01/20 11:56:40;;;;;;;44.55;19.55;;;;;;;;;;4993215;28;20092;-39
2022/01/20 11:59:08;;;;;;;43.75;20.30;;;;;;;;;;5001588;28;20523;-38
2022/01/20 12:01:53;;;;;;;39.67;19.85;;;;;;;;;;5003959;28;20048;-36
2022/01/20 12:04:38;;;;;;;38.10;20.17;;;;;;;;;;5005182;28;20176;-38
2022/01/20 12:07:04;;;;;;;38.90;20.67;;;;;;;;;;5003968;28;20033;-37
2022/01/20 12:09:33;;;;;;;37.58;19.77;;;;;;;;;;5004672;28;20033;-35
2022/01/20 12:11:59;;;;;;;41.13;19.88;;;;;;;;;;5004108;28;20038;-39
2022/01/20 12:14:32;;;;;;;37.85;20.60;;;;;;;;;;5006366;28;20116;-40
2022/01/20 12:17:17;;;;;;;42.22;19.55;;;;;;;;;;5006407;28;20449;-38
2022/01/20 12:19:47;;;;;;;36.83;19.50;;;;;;;;;;5006991;28;20041;-36
2022/01/20 12:22:12;;;;;;;42.03;20.83;;;;;;;;;;5005720;28;20026;-37
2022/01/20 12:24:38;;;;;;;41.90;20.58;;;;;;;;;;4995386;28;20037;-36
2022/01/20 12:27:16;;;;;;;34.85;18.55;;;;;;;;;;4994412;28;20046;-38
2022/01/20 12:29:42;;;;;;;37.22;20.10;;;;;;;;;;5004069;28;20416;-34
2022/01/20 12:32:26;;;;;;;37.08;19.15;;;;;;;;;;5004710;28;20029;-36
2022/01/20 12:34:59;;;;;;;32.22;19.10;;;;;;;;;;5004687;28;20053;-35
2022/01/20 12:37:34;;;;;;;40.80;20.05;;;;;;;;;;5003612;28;20029;-40
2022/01/20 12:40:00;;;;;;;41.95;20.35;;;;;;;;;;5005918;28;20145;-39
2022/01/20 12:42:32;;;;;;;36.47;19.77;;;;;;;;;;5005427;28;20053;-38
2022/01/20 12:45:55;;;;;;;32.53;19.65;;;;;;;;;;5002608;28;20651;-36
2022/01/20 12:47:49;;;;;;;35.20;20.10;;;;;;;;;;4990414;28;20041;-38
2022/01/20 12:50:14;;;;;;;35.60;19.52;;;;;;;;;;4992720;28;20112;-38
2022/01/20 12:52:49;;;;;;;33.60;19.63;;;;;;;;;;4995716;28;20023;-37
2022/01/20 12:55:15;;;;;;;33.08;20.10;;;;;;;;;;4986215;28;20026;-33
2022/01/20 12:57:42;;;;;;;31.90;18.42;;;;;;;;;;4997824;28;20026;-36
2022/01/20 13:00:08;;;;;;;32.45;18.67;;;;;;;;;;4996479;28;20481;-39
2022/01/20 13:02:34;;;;;;;32.25;19.05;;;;;;;;;;4996457;28;20018;-37
2022/01/20 13:05:02;;;;;;;33.53;18.75;;;;;;;;;;4995254;28;20093;-38
2022/01/20 13:07:28;;;;;;;45.13;18.42;;;;;;;;;;5001861;28;20034;-36
2022/01/20 13:10:37;;;;;;;34.40;20.58;;;;;;;;;;5004733;28;20068;-34
2022/01/20 13:12:43;;;;;;;39.85;20.40;;;;;;;;;;5002535;28;20042;-34
2022/01/20 13:15:18;;;;;;;35.58;19.67;;;;;;;;;;4986095;28;20026;-37
2022/01/20 13:17:46;;;;;;;29.70;18.65;;;;;;;;;;4985375;28;20092;-38
2022/01/20 13:20:23;;;;;;;35.17;19.10;;;;;;;;;;4986247;28;20034;-39
2022/01/20 13:23:01;;;;;;;38.05;20.13;;;;;;;;;;4985350;28;20030;-36
2022/01/20 13:25:29;;;;;;;30.05;18.95;;;;;;;;;;4990715;28;20156;-40
2022/01/20 13:27:56;;;;;;;39.85;19.70;;;;;;;;;;4985361;28;20022;-37
2022/01/20 13:30:30;;;;;;;33.33;19.45;;;;;;;;;;4998375;28;20034;-38
2022/01/20 13:32:56;;;;;;;36.35;19.10;;;;;;;;;;4995358;28;20042;-39
2022/01/20 13:35:21;;;;;;;36.42;22.08;;;;;;;;;;4999621;28;20100;-41
2022/01/20 13:38:00;;;;;;;49.20;25.33;;;;;;;;;;5002048;28;20486;-39
2022/01/20 13:40:25;;;;;;;45.85;26.27;;;;;;;;;;5002335;28;20507;-39
2022/01/20 13:45:39;;;;;;;54.50;27.75;;;;;;;;;;5003557;28;20045;-36
2022/01/20 13:48:04;;;;;;;47.22;27.27;;;;;;;;;;5004446;28;20045;-38
2022/01/20 13:50:40;;;;;;;47.65;27.70;;;;;;;;;;5001944;28;20060;-37
2022/01/20 13:53:14;;;;;;;50.00;28.58;;;;;;;;;;5004830;28;20022;-38
2022/01/20 13:55:39;;;;;;;51.70;28.67;;;;;;;;;;4998100;28;20030;-36
2022/01/20 13:58:05;;;;;;;51.58;29.10;;;;;;;;;;4998913;28;20034;-41
2022/01/20 14:00:33;;;;;;;60.33;29.33;;;;;;;;;;5004043;28;20424;-39
2022/01/20 14:02:58;;;;;;;52.83;28.25;;;;;;;;;;5004250;28;20034;-38
2022/01/20 14:05:28;;;;;;;48.20;24.90;;;;;;;;;;5003188;28;20266;-39
2022/01/20 14:07:54;;;;;;;45.28;19.27;;;;;;;;;;4984540;28;20042;-34
2022/01/20 14:10:20;;;;;;;34.78;22.17;;;;;;;;;;5014546;28;20064;-39
2022/01/20 14:12:46;;;;;;;47.30;24.45;;;;;;;;;;5023477;28;20030;-32
2022/01/20 14:15:12;;;;;;;46.67;25.60;;;;;;;;;;5023619;28;20385;-34
2022/01/20 14:17:38;;;;;;;46.65;22.50;;;;;;;;;;5005705;28;20097;-36
2022/01/20 14:20:08;;;;;;;42.55;23.58;;;;;;;;;;5003031;28;20382;-37
2022/01/20 14:22:34;;;;;;;46.15;22.20;;;;;;;;;;5003891;28;20030;-38
2022/01/20 14:24:59;;;;;;;40.53;22.38;;;;;;;;;;5004511;28;20100;-39
2022/01/20 14:27:25;;;;;;;43.22;22.05;;;;;;;;;;4998546;28;20026;-35
2022/01/20 14:29:50;;;;;;;45.15;23.42;;;;;;;;;;4989495;28;20054;-36
2022/01/20 14:32:16;;;;;;;42.72;22.65;;;;;;;;;;4994042;28;20437;-36
2022/01/20 14:34:42;;;;;;;38.90;22.85;;;;;;;;;;4987027;28;20053;-38
2022/01/20 14:37:08;;;;;;;37.97;22.40;;;;;;;;;;4993100;28;20485;-39
2022/01/20 14:39:34;;;;;;;38.33;23.98;;;;;;;;;;4990438;28;20036;-36
2022/01/20 14:42:04;;;;;;;34.55;22.95;;;;;;;;;;4996391;28;20145;-37
2022/01/20 14:44:29;;;;;;;41.22;23.40;;;;;;;;;;4982547;28;20048;-39
2022/01/20 14:46:55;;;;;;;43.72;24.08;;;;;;;;;;4984765;28;20018;-36
2022/01/20 14:49:20;;;;;;;36.80;22.98;;;;;;;;;;4985395;28;20031;-38
2022/01/20 14:51:48;;;;;;;36.67;22.60;;;;;;;;;;4984556;28;20051;-34
2022/01/20 14:54:14;;;;;;;33.10;22.80;;;;;;;;;;4985938;28;20026;-38
2022/01/20 14:56:40;;;;;;;34.67;21.83;;;;;;;;;;4988381;28;20026;-37
2022/01/20 14:59:05;;;;;;;34.78;21.88;;;;;;;;;;4989087;28;20481;-36
2022/01/20 15:01:31;;;;;;;31.27;20.92;;;;;;;;;;4988746;28;20027;-34
2022/01/20 15:03:56;;;;;;;33.80;21.90;;;;;;;;;;4988786;28;20041;-40
2022/01/20 15:06:22;;;;;;;31.55;20.90;;;;;;;;;;5000664;28;20394;-38
2022/01/20 15:08:47;;;;;;;32.33;20.95;;;;;;;;;;5006047;28;20137;-38
2022/01/20 15:11:13;;;;;;;29.92;19.95;;;;;;;;;;4989839;28;20543;-40
2022/01/20 15:13:38;;;;;;;26.13;19.73;;;;;;;;;;5008818;28;20041;-38
2022/01/20 15:16:04;;;;;;;31.23;19.85;;;;;;;;;;5007405;28;20101;-38
2022/01/20 15:18:30;;;;;;;30.02;18.98;;;;;;;;;;5007911;28;20053;-34
2022/01/20 15:20:56;;;;;;;29.70;19.40;;;;;;;;;;5007889;28;20115;-38
2022/01/20 15:23:21;;;;;;;28.17;19.33;;;;;;;;;;5007679;28;20033;-37
2022/01/20 15:25:47;;;;;;;30.92;19.33;;;;;;;;;;4998492;28;20022;-40
2022/01/20 15:28:14;;;;;;;24.92;16.33;;;;;;;;;;4988595;28;20022;-38
2022/01/20 15:30:39;;;;;;;30.10;16.95;;;;;;;;;;5003609;28;20033;-38
2022/01/20 15:33:05;;;;;;;27.33;16.27;;;;;;;;;;5000318;28;20045;-40
2022/01/20 15:35:31;;;;;;;30.77;15.77;;;;;;;;;;5013174;28;20030;-38
2022/01/20 15:37:56;;;;;;;30.08;14.80;;;;;;;;;;5009486;28;20038;-36
2022/01/20 15:40:22;;;;;;;24.73;15.52;;;;;;;;;;5001282;28;20030;-37
2022/01/20 15:42:47;;;;;;;26.33;15.88;;;;;;;;;;5007900;28;20033;-36